x

Seal Rocks - Between Montague And Hinchinbrook Islands, Ak (46061) Wave Buoy

5:50am - Fri 29th Aug 2014 All times are AKDT. -8 hours from GMT.

  • Sig Wave height 4.6ft
  • Swell Direction
  • Peak Period 7s
  • Average Period 6s
  • Wind
    20mph, 25mph gusts
  • Sea Temp 56°f
  • Air Temp 53°f
  • Sea Pressure 1000.3mb
  • Seal Rocks - Between Montague And Hinchinbrook Islands, Ak
  • Seal Rocks - Between Montague And Hinchinbrook Islands, Ak

More Historic Weather Station data

Upgrade to MSW Pro to gain access to the past 30 days of data for over 8000 Wavebouys and Weather Stations around the globe.

Join Pro

Comparision Forecast

View Surf forecast
   
Fri 08/29 5:50am 4.5ft 7s 6s 20 25 mph 1000.3mb 56f 53f
4:50am 4.5ft 7s 6s 25 29 mph 1000.3mb 56f 54f
3:50am 4.5ft 7s 6s 27 31 mph 1000.6mb 56f 54f
2:50am 5ft 7s 6s 27 31 mph 1001.1mb 56f 53f
1:50am 6ft 7s 6s 27 31 mph 1001.6mb 56f 54f
12:50am 7ft 7s 6s 27 31 mph 1002.1mb 56f 54f
Thu 08/28 11:50pm 6.5ft 7s 6s 29 34 mph 1002.4mb 56f 54f
10:50pm 8ft 7s 6s 29 34 mph 1002.6mb 56f 54f
9:50pm 7ft 7s 6s 29 34 mph 1002.8mb 56f 54f
8:50pm 6.5ft 9s 6s 27 36 mph 1003.1mb 56f 54f
7:50pm 6ft 7s 6s 25 29 mph 1003.6mb 56f 55f
6:50pm 4.5ft 8s 6s 25 29 mph 1004.1mb 56f 54f
5:50pm 4.5ft 8s 6s 27 34 mph 1004.1mb 56f 55f
4:50pm 5ft 9s 6s 25 29 mph 1004.5mb 56f 54f
3:50pm 5.5ft 8s 6s 25 29 mph 1004.9mb 56f 54f
2:50pm 5ft 8s 6s 22 27 mph 1005.2mb 56f 55f
1:50pm 5.5ft 8s 6s 27 31 mph 1005.4mb 56f 55f
12:50pm 7ft 8s 6s 27 34 mph 1005.8mb 56f 55f
11:50am 6ft 8s 6s 27 31 mph 1006mb 56f 55f
10:50am 6.5ft 8s 6s 25 29 mph 1006.3mb 56f 54f
9:50am 5.5ft 6s 5s 22 29 mph 1006.4mb 56f 54f
8:50am 5.5ft 6s 5s 27 31 mph 1006.3mb 56f 54f
7:50am 5ft 6s 5s 22 27 mph 1006.4mb 56f 55f
6:50am 4.5ft 6s 5s 22 27 mph 1006.5mb 56f 55f
5:50am 3ft 6s 5s 22 29 mph 1006.5mb 56f 55f
4:50am 4ft 6s 5s 20 22 mph 1007mb 56f 56f
3:50am 4.5ft 6s 5s 25 31 mph 1007.4mb 57f 55f
2:50am 4ft 6s 5s 22 27 mph 1008.2mb 56f 56f
1:50am 4.5ft 6s 5s 25 27 mph 1008.6mb 56f 55f
12:50am 4.5ft 5s 4s 31 40 mph 1008.4mb 56f 55f
Wed 08/27 11:50pm 4.5ft 5s 4s 27 36 mph 1009.2mb 56f 55f
10:50pm 4.5ft 5s 4s 27 34 mph 1009.9mb 56f 57f
9:50pm 4.5ft 5s 4s 25 29 mph 1010.4mb 56f 57f
8:50pm 4.5ft 5s 4s 22 27 mph 1011mb 56f 56f
7:50pm 3.5ft 8s 5s 25 27 mph 1011.3mb 56f 57f
6:50pm 3.5ft 5s 5s 13 18 mph 1012.2mb 56f 54f
5:50pm 3.5ft 9s 5s 20 25 mph 1012.5mb 57f 55f
4:50pm 3.5ft 4s 4s 22 25 mph 1012.8mb 57f 54f
3:50pm 3ft 7s 4s 20 22 mph 1013.6mb 57f 55f
2:50pm 3ft 8s 4s 20 25 mph 1013.9mb 57f 55f
1:50pm 3ft 7s 5s 16 20 mph 1014.5mb 57f 56f
12:50pm 2.5ft 8s 5s 16 18 mph 1014.8mb 57f 55f
11:50am 2.5ft 10s 5s 16 18 mph 1015mb 57f 56f
10:50am 2.5ft 10s 5s 13 16 mph 1015.3mb 57f 56f
9:50am 2.5ft 8s 6s 13
mph
1015.3mb 57f 56f
8:50am 2.5ft 8s 7s 11 13 mph 1015.4mb 56f 56f
7:50am 2.5ft 8s 7s 11
mph
1015.3mb 56f 56f
6:50am 2.5ft 9s 7s 9 13 mph 1015.3mb 56f 55f
5:50am 2.5ft 8s 7s 9 13 mph 1015.4mb 56f 55f
4:50am 2.5ft 8s 7s 4 7 mph 1015.3mb 56f 56f
3:50am 2.5ft 8s 6s 7 9 mph 1015.2mb 56f 56f
2:50am 3ft 9s 6s 2 4 mph 1015.2mb 56f 56f
1:50am 3.5ft 8s 6s 2 4 mph 1015.1mb 57f 56f
12:50am 3.5ft 8s 6s 2
mph
1015mb 57f 56f
Tue 08/26 11:50pm 3.5ft 7s 6s 4 7 mph 1014.8mb 57f 56f
10:50pm 3ft 9s 7s 4
mph
1014.6mb 57f 56f
9:50pm 3.5ft 8s 7s 4
mph
1014.6mb 57f 56f
8:50pm 3.5ft 9s 7s 7 9 mph 1014.4mb 57f 56f
7:50pm 3ft 8s 7s 7 9 mph 1014.4mb 57f 56f
6:50pm 3.5ft 10s 8s 9
mph
1014.1mb 57f 57f
5:50pm 3.5ft 9s 8s 9
mph
1013.9mb 57f 57f
4:50pm 3ft 9s 7s 9
mph
1013.7mb 58f 57f
3:50pm 3.5ft 9s 7s 9 11 mph 1013.7mb 58f 56f
2:50pm 3.5ft 9s 6s 4 7 mph 1013.4mb 58f 57f
1:50pm 3.5ft 8s 6s 2 4 mph 1013.1mb 57f 57f
12:50pm 3.5ft 9s 6s  -  2 mph 1012.8mb 57f 57f
11:50am 3.5ft 8s 6s 4 7 mph 1012.5mb 57f 56f
10:50am 3.5ft 9s 6s 4 7 mph 1012.1mb 56f 55f
9:50am 3.5ft 8s 6s 7 9 mph 1011.6mb 56f 55f
8:50am 4.5ft 9s 7s 2 4 mph 1011.2mb 56f 54f
7:50am 4.5ft 8s 7s 2 4 mph 1010.8mb 56f 54f
6:50am 5ft 9s 7s 2 4 mph 1010.4mb 56f 54f
5:50am 4.5ft 10s 7s 2
mph
1010.1mb 56f 54f
4:50am 4.5ft 9s 7s 4 7 mph 1009.7mb 56f 54f
3:50am 4.5ft 8s 7s 2 7 mph 1009.2mb 56f 54f
2:50am 4.5ft 9s 7s 7 11 mph 1008.7mb 56f 55f
1:50am 4.5ft 8s 6s 16 20 mph 1008.3mb 56f 54f
12:50am 4.5ft 8s 6s 16 20 mph 1008mb 56f 54f
Mon 08/25 11:50pm 4.5ft 8s 6s 16 18 mph 1007.8mb 57f 54f
10:50pm 4.5ft 8s 6s 16 18 mph 1007.5mb 57f 55f
9:50pm 4.5ft 8s 6s 16 18 mph 1007.3mb 57f 55f
8:50pm 4.5ft 8s 6s 18 20 mph 1007.1mb 57f 55f
7:50pm 5ft 8s 6s 18 20 mph 1006.9mb 57f 55f
6:50pm 5ft 8s 6s 13 16 mph 1007mb 57f 56f
5:50pm 4.5ft 8s 6s 11 13 mph 1006.8mb 57f 56f
4:50pm 5ft 8s 7s 11 13 mph 1006.7mb 57f 55f
3:50pm 5ft 8s 6s 11 13 mph 1006.6mb 57f 55f